sensor_id;sensor_type;location;lat;lon;timestamp;P1;durP1;ratioP1;P2;durP2;ratioP2
54845;SDS011;53889;50.084;8.646;2022-09-12T00:01:05;16.35;;;11.52;;
54845;SDS011;53889;50.084;8.646;2022-09-12T00:05:59;15.75;;;11.35;;
54845;SDS011;53889;50.084;8.646;2022-09-12T00:08:26;14.98;;;11.30;;
54845;SDS011;53889;50.084;8.646;2022-09-12T00:10:54;14.98;;;11.00;;
54845;SDS011;53889;50.084;8.646;2022-09-12T00:13:21;15.98;;;11.35;;
54845;SDS011;53889;50.084;8.646;2022-09-12T00:15:48;16.08;;;10.82;;
54845;SDS011;53889;50.084;8.646;2022-09-12T00:18:15;15.90;;;10.95;;
54845;SDS011;53889;50.084;8.646;2022-09-12T00:20:42;18.65;;;11.80;;
54845;SDS011;53889;50.084;8.646;2022-09-12T00:23:10;14.95;;;11.05;;
54845;SDS011;53889;50.084;8.646;2022-09-12T00:25:40;16.42;;;11.23;;
54845;SDS011;53889;50.084;8.646;2022-09-12T00:28:08;17.52;;;11.65;;
54845;SDS011;53889;50.084;8.646;2022-09-12T00:30:39;15.25;;;11.45;;
54845;SDS011;53889;50.084;8.646;2022-09-12T00:33:06;18.15;;;11.68;;
54845;SDS011;53889;50.084;8.646;2022-09-12T00:35:34;15.30;;;11.38;;
54845;SDS011;53889;50.084;8.646;2022-09-12T00:38:06;15.52;;;11.35;;
54845;SDS011;53889;50.084;8.646;2022-09-12T00:40:33;15.07;;;11.32;;
54845;SDS011;53889;50.084;8.646;2022-09-12T00:42:59;16.90;;;10.82;;
54845;SDS011;53889;50.084;8.646;2022-09-12T00:45:28;17.30;;;11.45;;
54845;SDS011;53889;50.084;8.646;2022-09-12T00:47:55;18.83;;;12.30;;
54845;SDS011;53889;50.084;8.646;2022-09-12T00:50:26;16.02;;;11.15;;
54845;SDS011;53889;50.084;8.646;2022-09-12T00:52:53;17.88;;;11.38;;
54845;SDS011;53889;50.084;8.646;2022-09-12T00:55:25;18.83;;;11.80;;
54845;SDS011;53889;50.084;8.646;2022-09-12T00:57:58;19.10;;;12.50;;
54845;SDS011;53889;50.084;8.646;2022-09-12T01:00:29;16.67;;;11.30;;
54845;SDS011;53889;50.084;8.646;2022-09-12T01:02:57;16.00;;;11.55;;
54845;SDS011;53889;50.084;8.646;2022-09-12T01:05:26;15.40;;;11.20;;
54845;SDS011;53889;50.084;8.646;2022-09-12T01:07:55;17.70;;;10.48;;
54845;SDS011;53889;50.084;8.646;2022-09-12T01:10:22;16.40;;;11.73;;
54845;SDS011;53889;50.084;8.646;2022-09-12T01:12:49;16.45;;;11.38;;
54845;SDS011;53889;50.084;8.646;2022-09-12T01:15:16;17.83;;;11.95;;
54845;SDS011;53889;50.084;8.646;2022-09-12T01:17:50;16.90;;;11.10;;
54845;SDS011;53889;50.084;8.646;2022-09-12T01:20:34;14.98;;;10.77;;
54845;SDS011;53889;50.084;8.646;2022-09-12T01:23:18;15.15;;;10.85;;
54845;SDS011;53889;50.084;8.646;2022-09-12T01:26:08;14.60;;;10.55;;
54845;SDS011;53889;50.084;8.646;2022-09-12T01:28:56;17.35;;;11.40;;
54845;SDS011;53889;50.084;8.646;2022-09-12T01:31:36;15.18;;;11.38;;
54845;SDS011;53889;50.084;8.646;2022-09-12T01:34:15;15.25;;;10.98;;
54845;SDS011;53889;50.084;8.646;2022-09-12T01:36:52;18.75;;;12.70;;
54845;SDS011;53889;50.084;8.646;2022-09-12T01:39:26;16.40;;;11.70;;
54845;SDS011;53889;50.084;8.646;2022-09-12T01:42:02;15.15;;;11.13;;
54845;SDS011;53889;50.084;8.646;2022-09-12T01:44:37;15.55;;;11.35;;
54845;SDS011;53889;50.084;8.646;2022-09-12T01:47:12;16.50;;;10.87;;
54845;SDS011;53889;50.084;8.646;2022-09-12T01:49:45;15.50;;;11.20;;
54845;SDS011;53889;50.084;8.646;2022-09-12T01:52:20;15.07;;;11.93;;
54845;SDS011;53889;50.084;8.646;2022-09-12T01:54:52;22.17;;;11.38;;
54845;SDS011;53889;50.084;8.646;2022-09-12T01:57:23;15.30;;;11.10;;
54845;SDS011;53889;50.084;8.646;2022-09-12T01:59:53;16.00;;;11.02;;
54845;SDS011;53889;50.084;8.646;2022-09-12T02:02:26;15.18;;;11.05;;
54845;SDS011;53889;50.084;8.646;2022-09-12T02:04:59;17.33;;;12.00;;
54845;SDS011;53889;50.084;8.646;2022-09-12T02:07:31;14.82;;;11.48;;
54845;SDS011;53889;50.084;8.646;2022-09-12T02:10:04;15.40;;;10.45;;
54845;SDS011;53889;50.084;8.646;2022-09-12T02:12:37;14.82;;;10.85;;
54845;SDS011;53889;50.084;8.646;2022-09-12T02:15:07;17.15;;;11.80;;
54845;SDS011;53889;50.084;8.646;2022-09-12T02:17:37;16.27;;;11.23;;
54845;SDS011;53889;50.084;8.646;2022-09-12T02:20:09;15.88;;;11.60;;
54845;SDS011;53889;50.084;8.646;2022-09-12T02:22:40;16.80;;;10.80;;
54845;SDS011;53889;50.084;8.646;2022-09-12T02:25:09;16.88;;;11.43;;
54845;SDS011;53889;50.084;8.646;2022-09-12T02:27:42;15.23;;;11.23;;
54845;SDS011;53889;50.084;8.646;2022-09-12T02:30:11;16.55;;;11.30;;
54845;SDS011;53889;50.084;8.646;2022-09-12T02:32:42;15.20;;;10.50;;
54845;SDS011;53889;50.084;8.646;2022-09-12T02:35:19;16.25;;;10.38;;
54845;SDS011;53889;50.084;8.646;2022-09-12T02:37:52;16.88;;;11.07;;
54845;SDS011;53889;50.084;8.646;2022-09-12T02:40:25;14.70;;;11.02;;
54845;SDS011;53889;50.084;8.646;2022-09-12T02:42:51;14.98;;;10.38;;
54845;SDS011;53889;50.084;8.646;2022-09-12T02:45:18;14.98;;;10.60;;
54845;SDS011;53889;50.084;8.646;2022-09-12T02:47:48;14.70;;;10.60;;
54845;SDS011;53889;50.084;8.646;2022-09-12T02:50:19;14.25;;;10.60;;
54845;SDS011;53889;50.084;8.646;2022-09-12T02:52:46;14.88;;;10.82;;
54845;SDS011;53889;50.084;8.646;2022-09-12T02:55:13;16.17;;;10.82;;
54845;SDS011;53889;50.084;8.646;2022-09-12T02:57:40;14.93;;;10.57;;
54845;SDS011;53889;50.084;8.646;2022-09-12T03:00:08;15.90;;;10.77;;
54845;SDS011;53889;50.084;8.646;2022-09-12T03:02:40;14.40;;;9.93;;
54845;SDS011;53889;50.084;8.646;2022-09-12T03:05:23;14.15;;;10.27;;
54845;SDS011;53889;50.084;8.646;2022-09-12T03:08:01;14.00;;;10.18;;
54845;SDS011;53889;50.084;8.646;2022-09-12T03:10:39;14.93;;;10.35;;
54845;SDS011;53889;50.084;8.646;2022-09-12T03:13:18;14.18;;;10.68;;
54845;SDS011;53889;50.084;8.646;2022-09-12T03:15:51;15.20;;;10.52;;
54845;SDS011;53889;50.084;8.646;2022-09-12T03:18:31;13.93;;;10.40;;
54845;SDS011;53889;50.084;8.646;2022-09-12T03:21:08;14.27;;;9.55;;
54845;SDS011;53889;50.084;8.646;2022-09-12T03:23:41;14.68;;;10.05;;
54845;SDS011;53889;50.084;8.646;2022-09-12T03:26:15;12.30;;;8.80;;
54845;SDS011;53889;50.084;8.646;2022-09-12T03:28:46;12.60;;;9.30;;
54845;SDS011;53889;50.084;8.646;2022-09-12T03:31:14;15.55;;;9.40;;
54845;SDS011;53889;50.084;8.646;2022-09-12T03:33:43;15.45;;;9.10;;
54845;SDS011;53889;50.084;8.646;2022-09-12T03:36:13;13.07;;;9.63;;
54845;SDS011;53889;50.084;8.646;2022-09-12T03:38:42;15.15;;;10.13;;
54845;SDS011;53889;50.084;8.646;2022-09-12T03:41:08;12.82;;;9.70;;
54845;SDS011;53889;50.084;8.646;2022-09-12T03:43:35;12.80;;;9.30;;
54845;SDS011;53889;50.084;8.646;2022-09-12T03:46:02;13.00;;;9.30;;
54845;SDS011;53889;50.084;8.646;2022-09-12T03:48:28;15.02;;;10.52;;
54845;SDS011;53889;50.084;8.646;2022-09-12T03:50:59;13.23;;;10.40;;
54845;SDS011;53889;50.084;8.646;2022-09-12T03:53:26;15.18;;;10.15;;
54845;SDS011;53889;50.084;8.646;2022-09-12T03:55:53;16.08;;;9.88;;
54845;SDS011;53889;50.084;8.646;2022-09-12T03:58:19;14.45;;;9.77;;
54845;SDS011;53889;50.084;8.646;2022-09-12T04:00:46;13.43;;;10.00;;
54845;SDS011;53889;50.084;8.646;2022-09-12T04:03:13;12.95;;;9.73;;
54845;SDS011;53889;50.084;8.646;2022-09-12T04:05:40;13.95;;;10.30;;
54845;SDS011;53889;50.084;8.646;2022-09-12T04:08:08;14.27;;;9.68;;
54845;SDS011;53889;50.084;8.646;2022-09-12T04:10:34;17.77;;;10.95;;
54845;SDS011;53889;50.084;8.646;2022-09-12T04:13:01;14.18;;;9.63;;
54845;SDS011;53889;50.084;8.646;2022-09-12T04:15:28;15.13;;;10.70;;
54845;SDS011;53889;50.084;8.646;2022-09-12T04:17:54;15.52;;;10.82;;
54845;SDS011;53889;50.084;8.646;2022-09-12T04:20:21;14.80;;;10.23;;
54845;SDS011;53889;50.084;8.646;2022-09-12T04:22:47;14.70;;;10.32;;
54845;SDS011;53889;50.084;8.646;2022-09-12T04:25:16;15.57;;;10.48;;
54845;SDS011;53889;50.084;8.646;2022-09-12T04:27:42;15.27;;;9.77;;
54845;SDS011;53889;50.084;8.646;2022-09-12T04:30:09;15.73;;;10.32;;
54845;SDS011;53889;50.084;8.646;2022-09-12T04:32:36;14.02;;;9.88;;
54845;SDS011;53889;50.084;8.646;2022-09-12T04:35:04;14.57;;;9.55;;
54845;SDS011;53889;50.084;8.646;2022-09-12T04:37:32;14.43;;;10.15;;
54845;SDS011;53889;50.084;8.646;2022-09-12T04:39:58;11.50;;;8.77;;
54845;SDS011;53889;50.084;8.646;2022-09-12T04:42:26;12.77;;;9.13;;
54845;SDS011;53889;50.084;8.646;2022-09-12T04:44:54;14.65;;;9.48;;
54845;SDS011;53889;50.084;8.646;2022-09-12T04:47:21;13.82;;;9.30;;
54845;SDS011;53889;50.084;8.646;2022-09-12T04:49:48;13.15;;;9.70;;
54845;SDS011;53889;50.084;8.646;2022-09-12T04:52:15;13.00;;;9.32;;
54845;SDS011;53889;50.084;8.646;2022-09-12T04:54:42;12.38;;;9.30;;
54845;SDS011;53889;50.084;8.646;2022-09-12T04:57:08;14.35;;;10.35;;
54845;SDS011;53889;50.084;8.646;2022-09-12T04:59:37;13.93;;;9.68;;
54845;SDS011;53889;50.084;8.646;2022-09-12T05:02:03;14.55;;;9.75;;
54845;SDS011;53889;50.084;8.646;2022-09-12T05:04:31;13.30;;;9.10;;
54845;SDS011;53889;50.084;8.646;2022-09-12T05:06:57;13.20;;;9.43;;
54845;SDS011;53889;50.084;8.646;2022-09-12T05:09:24;13.20;;;9.30;;
54845;SDS011;53889;50.084;8.646;2022-09-12T05:11:51;12.45;;;9.50;;
54845;SDS011;53889;50.084;8.646;2022-09-12T05:14:17;13.27;;;9.45;;
54845;SDS011;53889;50.084;8.646;2022-09-12T05:16:45;14.10;;;8.95;;
54845;SDS011;53889;50.084;8.646;2022-09-12T05:19:12;14.07;;;9.35;;
54845;SDS011;53889;50.084;8.646;2022-09-12T05:21:39;14.60;;;9.95;;
54845;SDS011;53889;50.084;8.646;2022-09-12T05:24:05;12.68;;;9.35;;
54845;SDS011;53889;50.084;8.646;2022-09-12T05:26:32;15.18;;;10.20;;
54845;SDS011;53889;50.084;8.646;2022-09-12T05:28:59;14.00;;;9.90;;
54845;SDS011;53889;50.084;8.646;2022-09-12T05:31:26;14.80;;;9.50;;
54845;SDS011;53889;50.084;8.646;2022-09-12T05:33:54;14.85;;;9.82;;
54845;SDS011;53889;50.084;8.646;2022-09-12T05:36:22;14.73;;;9.70;;
54845;SDS011;53889;50.084;8.646;2022-09-12T05:38:50;17.42;;;10.27;;
54845;SDS011;53889;50.084;8.646;2022-09-12T05:41:17;13.85;;;9.68;;
54845;SDS011;53889;50.084;8.646;2022-09-12T05:43:46;16.10;;;9.38;;
54845;SDS011;53889;50.084;8.646;2022-09-12T05:46:17;12.75;;;9.02;;
54845;SDS011;53889;50.084;8.646;2022-09-12T05:48:46;15.20;;;8.95;;
54845;SDS011;53889;50.084;8.646;2022-09-12T05:51:15;12.15;;;8.95;;
54845;SDS011;53889;50.084;8.646;2022-09-12T05:53:44;12.63;;;8.85;;
54845;SDS011;53889;50.084;8.646;2022-09-12T05:56:13;12.57;;;8.48;;
54845;SDS011;53889;50.084;8.646;2022-09-12T05:58:42;12.63;;;9.10;;
54845;SDS011;53889;50.084;8.646;2022-09-12T06:01:10;12.10;;;8.93;;
54845;SDS011;53889;50.084;8.646;2022-09-12T06:03:39;11.98;;;8.93;;
54845;SDS011;53889;50.084;8.646;2022-09-12T06:06:07;14.38;;;9.48;;
54845;SDS011;53889;50.084;8.646;2022-09-12T06:08:39;12.40;;;8.45;;
54845;SDS011;53889;50.084;8.646;2022-09-12T06:11:07;12.88;;;8.35;;
54845;SDS011;53889;50.084;8.646;2022-09-12T06:13:35;11.93;;;8.32;;
54845;SDS011;53889;50.084;8.646;2022-09-12T06:16:04;12.65;;;8.65;;
54845;SDS011;53889;50.084;8.646;2022-09-12T06:18:32;34.35;;;9.38;;
54845;SDS011;53889;50.084;8.646;2022-09-12T06:21:03;11.63;;;7.60;;
54845;SDS011;53889;50.084;8.646;2022-09-12T06:23:31;25.25;;;8.05;;
54845;SDS011;53889;50.084;8.646;2022-09-12T06:26:00;10.68;;;6.88;;
54845;SDS011;53889;50.084;8.646;2022-09-12T06:28:28;8.65;;;6.45;;
54845;SDS011;53889;50.084;8.646;2022-09-12T06:31:00;8.77;;;6.22;;
54845;SDS011;53889;50.084;8.646;2022-09-12T06:33:29;10.65;;;6.68;;
54845;SDS011;53889;50.084;8.646;2022-09-12T06:36:00;7.80;;;5.47;;
54845;SDS011;53889;50.084;8.646;2022-09-12T06:38:28;10.55;;;6.97;;
54845;SDS011;53889;50.084;8.646;2022-09-12T06:40:55;9.75;;;6.03;;
54845;SDS011;53889;50.084;8.646;2022-09-12T06:43:24;9.50;;;5.50;;
54845;SDS011;53889;50.084;8.646;2022-09-12T06:45:50;8.13;;;5.50;;
54845;SDS011;53889;50.084;8.646;2022-09-12T06:48:18;7.75;;;5.50;;
54845;SDS011;53889;50.084;8.646;2022-09-12T06:50:53;7.65;;;5.35;;
54845;SDS011;53889;50.084;8.646;2022-09-12T06:53:20;7.78;;;5.85;;
54845;SDS011;53889;50.084;8.646;2022-09-12T06:55:53;8.55;;;5.47;;
54845;SDS011;53889;50.084;8.646;2022-09-12T06:58:20;9.13;;;5.88;;
54845;SDS011;53889;50.084;8.646;2022-09-12T07:00:48;8.95;;;5.75;;
54845;SDS011;53889;50.084;8.646;2022-09-12T07:03:15;8.02;;;5.43;;
54845;SDS011;53889;50.084;8.646;2022-09-12T07:05:42;8.63;;;5.32;;
54845;SDS011;53889;50.084;8.646;2022-09-12T07:08:08;7.38;;;4.88;;
54845;SDS011;53889;50.084;8.646;2022-09-12T07:10:35;5.35;;;4.45;;
54845;SDS011;53889;50.084;8.646;2022-09-12T07:13:02;7.25;;;4.80;;
54845;SDS011;53889;50.084;8.646;2022-09-12T07:15:28;5.97;;;4.65;;
54845;SDS011;53889;50.084;8.646;2022-09-12T07:17:56;7.30;;;5.30;;
54845;SDS011;53889;50.084;8.646;2022-09-12T07:20:23;7.70;;;5.32;;
54845;SDS011;53889;50.084;8.646;2022-09-12T07:22:50;6.35;;;4.70;;
54845;SDS011;53889;50.084;8.646;2022-09-12T07:25:16;6.45;;;4.65;;
54845;SDS011;53889;50.084;8.646;2022-09-12T07:27:43;6.13;;;4.80;;
54845;SDS011;53889;50.084;8.646;2022-09-12T07:30:10;6.05;;;4.40;;
54845;SDS011;53889;50.084;8.646;2022-09-12T07:32:37;5.75;;;4.88;;
54845;SDS011;53889;50.084;8.646;2022-09-12T07:35:05;7.63;;;4.70;;
54845;SDS011;53889;50.084;8.646;2022-09-12T07:37:33;8.27;;;4.75;;
54845;SDS011;53889;50.084;8.646;2022-09-12T07:39:59;8.57;;;5.20;;
54845;SDS011;53889;50.084;8.646;2022-09-12T07:42:27;7.57;;;5.13;;
54845;SDS011;53889;50.084;8.646;2022-09-12T07:44:54;7.72;;;5.00;;
54845;SDS011;53889;50.084;8.646;2022-09-12T07:47:21;6.82;;;5.28;;
54845;SDS011;53889;50.084;8.646;2022-09-12T07:49:48;8.13;;;5.93;;
54845;SDS011;53889;50.084;8.646;2022-09-12T07:52:17;8.23;;;4.90;;
54845;SDS011;53889;50.084;8.646;2022-09-12T07:54:44;7.00;;;4.82;;
54845;SDS011;53889;50.084;8.646;2022-09-12T07:57:11;7.07;;;5.03;;
54845;SDS011;53889;50.084;8.646;2022-09-12T07:59:39;14.07;;;5.18;;
54845;SDS011;53889;50.084;8.646;2022-09-12T08:02:09;8.05;;;5.13;;
54845;SDS011;53889;50.084;8.646;2022-09-12T08:04:38;6.47;;;5.20;;
54845;SDS011;53889;50.084;8.646;2022-09-12T08:07:04;8.60;;;5.50;;
54845;SDS011;53889;50.084;8.646;2022-09-12T08:09:32;6.95;;;5.00;;
54845;SDS011;53889;50.084;8.646;2022-09-12T08:11:59;6.35;;;4.90;;
54845;SDS011;53889;50.084;8.646;2022-09-12T08:14:26;5.90;;;4.60;;
54845;SDS011;53889;50.084;8.646;2022-09-12T08:16:53;6.38;;;4.85;;
54845;SDS011;53889;50.084;8.646;2022-09-12T08:19:20;7.10;;;5.07;;
54845;SDS011;53889;50.084;8.646;2022-09-12T08:21:47;6.80;;;4.90;;
54845;SDS011;53889;50.084;8.646;2022-09-12T08:24:14;7.13;;;4.80;;
54845;SDS011;53889;50.084;8.646;2022-09-12T08:26:42;7.20;;;4.90;;
54845;SDS011;53889;50.084;8.646;2022-09-12T08:29:09;7.88;;;5.65;;
54845;SDS011;53889;50.084;8.646;2022-09-12T08:31:36;6.68;;;4.47;;
54845;SDS011;53889;50.084;8.646;2022-09-12T08:34:03;7.63;;;4.75;;
54845;SDS011;53889;50.084;8.646;2022-09-12T08:36:32;6.15;;;4.65;;
54845;SDS011;53889;50.084;8.646;2022-09-12T08:39:00;7.47;;;4.97;;
54845;SDS011;53889;50.084;8.646;2022-09-12T08:41:29;6.18;;;4.47;;
54845;SDS011;53889;50.084;8.646;2022-09-12T08:44:05;9.18;;;5.07;;
54845;SDS011;53889;50.084;8.646;2022-09-12T08:46:47;6.68;;;4.80;;
54845;SDS011;53889;50.084;8.646;2022-09-12T08:49:24;6.72;;;4.28;;
54845;SDS011;53889;50.084;8.646;2022-09-12T08:51:54;6.85;;;4.82;;
54845;SDS011;53889;50.084;8.646;2022-09-12T08:54:23;5.57;;;4.50;;
54845;SDS011;53889;50.084;8.646;2022-09-12T08:56:52;5.70;;;4.35;;
54845;SDS011;53889;50.084;8.646;2022-09-12T08:59:26;6.38;;;4.80;;
54845;SDS011;53889;50.084;8.646;2022-09-12T09:01:54;6.03;;;5.03;;
54845;SDS011;53889;50.084;8.646;2022-09-12T09:04:26;5.88;;;4.47;;
54845;SDS011;53889;50.084;8.646;2022-09-12T09:07:05;5.95;;;4.40;;
54845;SDS011;53889;50.084;8.646;2022-09-12T09:09:46;35.17;;;7.85;;
54845;SDS011;53889;50.084;8.646;2022-09-12T09:12:24;17.13;;;6.00;;
54845;SDS011;53889;50.084;8.646;2022-09-12T09:15:05;8.10;;;4.70;;
54845;SDS011;53889;50.084;8.646;2022-09-12T09:17:45;9.00;;;4.80;;
54845;SDS011;53889;50.084;8.646;2022-09-12T09:20:18;6.93;;;4.70;;
54845;SDS011;53889;50.084;8.646;2022-09-12T09:22:53;4.97;;;3.83;;
54845;SDS011;53889;50.084;8.646;2022-09-12T09:25:24;8.15;;;4.95;;
54845;SDS011;53889;50.084;8.646;2022-09-12T09:28:00;6.20;;;4.45;;
54845;SDS011;53889;50.084;8.646;2022-09-12T09:30:33;10.98;;;4.63;;
54845;SDS011;53889;50.084;8.646;2022-09-12T09:33:01;9.48;;;4.50;;
54845;SDS011;53889;50.084;8.646;2022-09-12T09:35:36;5.25;;;4.30;;
54845;SDS011;53889;50.084;8.646;2022-09-12T09:38:12;5.03;;;4.10;;
54845;SDS011;53889;50.084;8.646;2022-09-12T09:40:48;10.88;;;5.28;;
54845;SDS011;53889;50.084;8.646;2022-09-12T09:43:24;5.85;;;4.80;;
54845;SDS011;53889;50.084;8.646;2022-09-12T09:45:54;5.47;;;4.50;;
54845;SDS011;53889;50.084;8.646;2022-09-12T09:48:24;6.82;;;4.68;;
54845;SDS011;53889;50.084;8.646;2022-09-12T09:50:53;5.30;;;4.47;;
54845;SDS011;53889;50.084;8.646;2022-09-12T09:53:27;7.40;;;4.50;;
54845;SDS011;53889;50.084;8.646;2022-09-12T09:56:00;8.55;;;4.63;;
54845;SDS011;53889;50.084;8.646;2022-09-12T09:58:30;6.88;;;4.72;;
54845;SDS011;53889;50.084;8.646;2022-09-12T10:01:00;7.40;;;4.00;;
54845;SDS011;53889;50.084;8.646;2022-09-12T10:03:29;7.90;;;4.68;;
54845;SDS011;53889;50.084;8.646;2022-09-12T10:05:58;7.22;;;4.53;;
54845;SDS011;53889;50.084;8.646;2022-09-12T10:08:27;6.32;;;4.30;;
54845;SDS011;53889;50.084;8.646;2022-09-12T10:10:59;5.00;;;3.65;;
54845;SDS011;53889;50.084;8.646;2022-09-12T10:13:39;7.20;;;4.57;;
54845;SDS011;53889;50.084;8.646;2022-09-12T10:16:17;6.53;;;4.28;;
54845;SDS011;53889;50.084;8.646;2022-09-12T10:18:46;5.20;;;3.70;;
54845;SDS011;53889;50.084;8.646;2022-09-12T10:21:26;4.32;;;3.55;;
54845;SDS011;53889;50.084;8.646;2022-09-12T10:24:19;5.75;;;3.80;;
54845;SDS011;53889;50.084;8.646;2022-09-12T10:26:49;4.28;;;3.10;;
54845;SDS011;53889;50.084;8.646;2022-09-12T10:29:20;5.15;;;3.78;;
54845;SDS011;53889;50.084;8.646;2022-09-12T10:31:51;4.35;;;3.50;;
54845;SDS011;53889;50.084;8.646;2022-09-12T10:34:24;5.38;;;3.65;;
54845;SDS011;53889;50.084;8.646;2022-09-12T10:37:00;4.88;;;3.55;;
54845;SDS011;53889;50.084;8.646;2022-09-12T10:39:29;16.38;;;4.90;;
54845;SDS011;53889;50.084;8.646;2022-09-12T10:41:58;5.22;;;3.60;;
54845;SDS011;53889;50.084;8.646;2022-09-12T10:44:25;4.30;;;2.90;;
54845;SDS011;53889;50.084;8.646;2022-09-12T10:46:56;4.38;;;3.13;;
54845;SDS011;53889;50.084;8.646;2022-09-12T10:49:25;6.15;;;3.58;;
54845;SDS011;53889;50.084;8.646;2022-09-12T10:51:54;4.95;;;3.40;;
54845;SDS011;53889;50.084;8.646;2022-09-12T10:54:24;3.97;;;3.03;;
54845;SDS011;53889;50.084;8.646;2022-09-12T10:57:08;4.72;;;3.38;;
54845;SDS011;53889;50.084;8.646;2022-09-12T10:59:54;3.95;;;2.95;;
54845;SDS011;53889;50.084;8.646;2022-09-12T11:02:33;4.38;;;3.30;;
54845;SDS011;53889;50.084;8.646;2022-09-12T11:05:09;4.63;;;2.90;;
54845;SDS011;53889;50.084;8.646;2022-09-12T11:13:04;3.97;;;2.58;;
54845;SDS011;53889;50.084;8.646;2022-09-12T11:15:45;4.03;;;3.00;;
54845;SDS011;53889;50.084;8.646;2022-09-12T11:18:28;3.75;;;2.88;;
54845;SDS011;53889;50.084;8.646;2022-09-12T11:24:05;5.40;;;3.20;;
54845;SDS011;53889;50.084;8.646;2022-09-12T11:26:49;4.13;;;2.80;;
54845;SDS011;53889;50.084;8.646;2022-09-12T11:29:29;3.58;;;2.67;;
54845;SDS011;53889;50.084;8.646;2022-09-12T11:32:22;3.47;;;2.70;;
54845;SDS011;53889;50.084;8.646;2022-09-12T11:35:05;5.18;;;3.15;;
54845;SDS011;53889;50.084;8.646;2022-09-12T11:37:44;3.70;;;2.90;;
54845;SDS011;53889;50.084;8.646;2022-09-12T11:40:24;4.38;;;2.75;;
54845;SDS011;53889;50.084;8.646;2022-09-12T11:42:56;4.88;;;2.60;;
54845;SDS011;53889;50.084;8.646;2022-09-12T11:45:27;4.40;;;2.80;;
54845;SDS011;53889;50.084;8.646;2022-09-12T11:47:58;3.25;;;2.30;;
54845;SDS011;53889;50.084;8.646;2022-09-12T11:50:30;3.30;;;2.30;;
54845;SDS011;53889;50.084;8.646;2022-09-12T11:52:59;4.05;;;2.88;;
54845;SDS011;53889;50.084;8.646;2022-09-12T11:55:31;3.72;;;2.28;;
54845;SDS011;53889;50.084;8.646;2022-09-12T11:58:07;63.33;;;10.60;;
54845;SDS011;53889;50.084;8.646;2022-09-12T12:00:35;22.90;;;5.32;;
54845;SDS011;53889;50.084;8.646;2022-09-12T12:03:08;4.40;;;2.45;;
54845;SDS011;53889;50.084;8.646;2022-09-12T12:05:41;4.10;;;2.43;;
54845;SDS011;53889;50.084;8.646;2022-09-12T12:08:16;3.58;;;2.45;;
54845;SDS011;53889;50.084;8.646;2022-09-12T12:10:47;3.05;;;2.35;;
54845;SDS011;53889;50.084;8.646;2022-09-12T12:13:18;3.00;;;2.33;;
54845;SDS011;53889;50.084;8.646;2022-09-12T12:15:50;5.00;;;2.88;;
54845;SDS011;53889;50.084;8.646;2022-09-12T12:18:21;3.47;;;2.50;;
54845;SDS011;53889;50.084;8.646;2022-09-12T12:20:50;4.47;;;2.28;;
54845;SDS011;53889;50.084;8.646;2022-09-12T12:23:23;3.83;;;2.33;;
54845;SDS011;53889;50.084;8.646;2022-09-12T12:25:53;4.95;;;2.53;;
54845;SDS011;53889;50.084;8.646;2022-09-12T12:31:22;3.13;;;1.90;;
54845;SDS011;53889;50.084;8.646;2022-09-12T12:33:50;2.55;;;1.77;;
54845;SDS011;53889;50.084;8.646;2022-09-12T12:36:29;2.50;;;1.75;;
54845;SDS011;53889;50.084;8.646;2022-09-12T12:45:45;3.53;;;2.08;;
54845;SDS011;53889;50.084;8.646;2022-09-12T12:48:43;3.80;;;2.00;;
54845;SDS011;53889;50.084;8.646;2022-09-12T12:51:14;3.65;;;2.38;;
54845;SDS011;53889;50.084;8.646;2022-09-12T12:53:51;2.95;;;2.28;;
54845;SDS011;53889;50.084;8.646;2022-09-12T12:56:26;3.80;;;2.33;;
54845;SDS011;53889;50.084;8.646;2022-09-12T12:58:58;3.10;;;2.30;;
54845;SDS011;53889;50.084;8.646;2022-09-12T13:01:27;3.38;;;2.35;;
54845;SDS011;53889;50.084;8.646;2022-09-12T13:03:55;3.33;;;2.65;;
54845;SDS011;53889;50.084;8.646;2022-09-12T13:06:31;2.97;;;2.22;;
54845;SDS011;53889;50.084;8.646;2022-09-12T13:09:03;3.35;;;2.38;;
54845;SDS011;53889;50.084;8.646;2022-09-12T13:11:33;2.83;;;2.17;;
54845;SDS011;53889;50.084;8.646;2022-09-12T13:14:02;3.30;;;2.10;;
54845;SDS011;53889;50.084;8.646;2022-09-12T13:16:32;3.63;;;2.60;;
54845;SDS011;53889;50.084;8.646;2022-09-12T13:19:01;3.50;;;2.58;;
54845;SDS011;53889;50.084;8.646;2022-09-12T13:21:31;4.20;;;2.70;;
54845;SDS011;53889;50.084;8.646;2022-09-12T13:23:58;3.25;;;2.40;;
54845;SDS011;53889;50.084;8.646;2022-09-12T13:26:28;3.47;;;2.33;;
54845;SDS011;53889;50.084;8.646;2022-09-12T13:29:10;3.70;;;2.40;;
54845;SDS011;53889;50.084;8.646;2022-09-12T13:31:39;3.92;;;2.70;;
54845;SDS011;53889;50.084;8.646;2022-09-12T13:34:07;3.20;;;2.47;;
54845;SDS011;53889;50.084;8.646;2022-09-12T13:36:56;3.50;;;2.30;;
54845;SDS011;53889;50.084;8.646;2022-09-12T13:39:45;3.20;;;2.40;;
54845;SDS011;53889;50.084;8.646;2022-09-12T13:42:21;4.00;;;2.42;;
54845;SDS011;53889;50.084;8.646;2022-09-12T13:45:03;2.90;;;2.38;;
54845;SDS011;53889;50.084;8.646;2022-09-12T13:47:35;4.68;;;2.40;;
54845;SDS011;53889;50.084;8.646;2022-09-12T13:50:06;3.22;;;2.35;;
54845;SDS011;53889;50.084;8.646;2022-09-12T13:52:39;3.55;;;2.67;;
54845;SDS011;53889;50.084;8.646;2022-09-12T13:55:14;3.83;;;2.42;;
54845;SDS011;53889;50.084;8.646;2022-09-12T13:57:56;4.07;;;2.97;;
54845;SDS011;53889;50.084;8.646;2022-09-12T14:02:52;7.50;;;3.13;;
54845;SDS011;53889;50.084;8.646;2022-09-12T14:05:39;4.15;;;2.72;;
54845;SDS011;53889;50.084;8.646;2022-09-12T14:08:09;3.63;;;2.80;;
54845;SDS011;53889;50.084;8.646;2022-09-12T14:10:39;4.43;;;2.70;;
54845;SDS011;53889;50.084;8.646;2022-09-12T14:13:10;4.82;;;2.90;;
54845;SDS011;53889;50.084;8.646;2022-09-12T14:15:43;5.75;;;2.90;;
54845;SDS011;53889;50.084;8.646;2022-09-12T14:18:18;4.85;;;3.08;;
54845;SDS011;53889;50.084;8.646;2022-09-12T14:20:48;4.10;;;3.05;;
54845;SDS011;53889;50.084;8.646;2022-09-12T14:23:23;4.32;;;2.55;;
54845;SDS011;53889;50.084;8.646;2022-09-12T14:25:53;3.47;;;2.78;;
54845;SDS011;53889;50.084;8.646;2022-09-12T14:28:21;4.57;;;2.90;;
54845;SDS011;53889;50.084;8.646;2022-09-12T14:30:58;4.05;;;2.72;;
54845;SDS011;53889;50.084;8.646;2022-09-12T14:33:27;4.70;;;3.00;;
54845;SDS011;53889;50.084;8.646;2022-09-12T14:36:06;4.03;;;2.78;;
54845;SDS011;53889;50.084;8.646;2022-09-12T14:38:36;3.72;;;2.80;;
54845;SDS011;53889;50.084;8.646;2022-09-12T14:41:08;4.75;;;3.20;;
54845;SDS011;53889;50.084;8.646;2022-09-12T14:43:37;3.60;;;2.88;;
54845;SDS011;53889;50.084;8.646;2022-09-12T14:46:06;4.15;;;3.00;;
54845;SDS011;53889;50.084;8.646;2022-09-12T14:48:46;4.50;;;3.10;;
54845;SDS011;53889;50.084;8.646;2022-09-12T14:51:17;4.70;;;3.10;;
54845;SDS011;53889;50.084;8.646;2022-09-12T14:53:47;4.50;;;2.97;;
54845;SDS011;53889;50.084;8.646;2022-09-12T14:56:14;4.05;;;2.92;;
54845;SDS011;53889;50.084;8.646;2022-09-12T14:58:42;5.55;;;2.97;;
54845;SDS011;53889;50.084;8.646;2022-09-12T15:01:22;3.95;;;3.00;;
54845;SDS011;53889;50.084;8.646;2022-09-12T15:03:51;4.35;;;3.10;;
54845;SDS011;53889;50.084;8.646;2022-09-12T15:06:20;5.50;;;3.10;;
54845;SDS011;53889;50.084;8.646;2022-09-12T15:08:50;6.07;;;3.33;;
54845;SDS011;53889;50.084;8.646;2022-09-12T15:11:18;4.05;;;3.20;;
54845;SDS011;53889;50.084;8.646;2022-09-12T15:13:46;4.75;;;2.75;;
54845;SDS011;53889;50.084;8.646;2022-09-12T15:16:14;6.22;;;3.80;;
54845;SDS011;53889;50.084;8.646;2022-09-12T15:18:40;4.15;;;3.08;;
54845;SDS011;53889;50.084;8.646;2022-09-12T15:21:09;5.47;;;3.17;;
54845;SDS011;53889;50.084;8.646;2022-09-12T15:23:39;4.85;;;2.80;;